createdAt,value
2022-08-17T00:02:25.540Z,49418.00
2022-08-17T00:04:54.046Z,49370.19
2022-08-17T00:07:20.743Z,49382.13
2022-08-17T00:09:47.362Z,49412.03
2022-08-17T00:12:42.788Z,49408.06
2022-08-17T00:15:01.224Z,49431.97
2022-08-17T00:17:27.934Z,49404.06
2022-08-17T00:19:54.638Z,49420.00
2022-08-17T00:22:34.647Z,49410.03
2022-08-17T00:25:07.380Z,49380.13
2022-08-17T00:27:34.766Z,49390.09
2022-08-17T00:30:01.480Z,49382.13
2022-08-17T00:33:14.104Z,49400.06
2022-08-17T00:35:18.332Z,49414.03
2022-08-17T00:37:45.358Z,49412.03
2022-08-17T00:40:14.458Z,49400.06
2022-08-17T00:42:43.307Z,49396.09
2022-08-17T00:45:13.460Z,49404.06
2022-08-17T00:47:40.223Z,49424.00
2022-08-17T00:50:10.799Z,49427.97
2022-08-17T00:52:43.344Z,49427.97
2022-08-17T00:55:11.110Z,49420.00
2022-08-17T00:57:43.660Z,49404.06
2022-08-17T01:00:21.314Z,49418.00
2022-08-17T01:02:48.374Z,49384.13
2022-08-17T01:05:21.028Z,49424.00
2022-08-17T01:07:50.886Z,49410.03
2022-08-17T01:11:00.679Z,49392.09
2022-08-17T01:13:11.272Z,49427.97
2022-08-17T01:15:41.909Z,49414.03
2022-08-17T01:18:13.827Z,49412.03
2022-08-17T01:20:52.903Z,49416.03
2022-08-17T01:23:21.823Z,49420.00
2022-08-17T01:25:55.264Z,49451.91
2022-08-17T01:28:52.477Z,49376.16
2022-08-17T01:31:12.869Z,49420.00
2022-08-17T01:33:40.462Z,49394.09
2022-08-17T01:36:07.950Z,49422.00
2022-08-17T01:38:35.792Z,49386.13
2022-08-17T01:41:09.478Z,49420.00
2022-08-17T01:43:49.773Z,49396.09
2022-08-17T01:46:21.881Z,49394.09
2022-08-17T01:48:48.919Z,49463.88
2022-08-17T01:51:16.135Z,49418.00
2022-08-17T01:53:49.068Z,49406.06
2022-08-17T01:56:18.881Z,49406.06
2022-08-17T01:58:46.691Z,49394.09
2022-08-17T02:01:19.417Z,49392.09
2022-08-17T02:03:56.107Z,49402.06
2022-08-17T02:06:28.990Z,49418.00
2022-08-17T02:09:01.886Z,49427.97
2022-08-17T02:11:30.008Z,49400.06
2022-08-17T02:14:02.437Z,49396.09
2022-08-17T02:16:37.764Z,49451.91
2022-08-17T02:19:08.057Z,49426.00
2022-08-17T02:21:36.765Z,49416.03
2022-08-17T02:24:05.137Z,49422.00
2022-08-17T02:26:31.959Z,49410.03
2022-08-17T02:28:58.590Z,49439.94
2022-08-17T02:31:25.269Z,49427.97
2022-08-17T02:34:00.261Z,49414.03
2022-08-17T02:36:32.311Z,49418.00
2022-08-17T02:39:01.553Z,49427.97
2022-08-17T02:41:28.311Z,49435.97
2022-08-17T02:43:55.006Z,49416.03
2022-08-17T02:46:22.537Z,49435.97
2022-08-17T02:48:49.274Z,49404.06
2022-08-17T02:51:15.931Z,49441.94
2022-08-17T02:53:42.574Z,49429.97
2022-08-17T02:56:09.242Z,49435.97
2022-08-17T02:58:36.302Z,49426.00
2022-08-17T03:01:05.826Z,49429.97
2022-08-17T03:03:32.997Z,49396.09
2022-08-17T03:05:59.705Z,49412.03
2022-08-17T03:08:27.266Z,49404.06
2022-08-17T03:10:53.897Z,49402.06
2022-08-17T03:13:20.807Z,49431.97
2022-08-17T03:15:48.764Z,49408.06
2022-08-17T03:18:19.375Z,49408.06
2022-08-17T03:20:52.863Z,49414.03
2022-08-17T03:23:23.760Z,49437.94
2022-08-17T03:25:53.147Z,49410.03
2022-08-17T03:28:21.862Z,49380.13
2022-08-17T03:30:48.921Z,49404.06
2022-08-17T03:33:16.864Z,49441.94
2022-08-17T03:35:43.853Z,49404.06
2022-08-17T03:38:12.097Z,49416.03
2022-08-17T03:40:56.594Z,49445.94
2022-08-17T03:43:28.917Z,49447.91
2022-08-17T03:46:28.943Z,49406.06
2022-08-17T03:49:18.750Z,49420.00
2022-08-17T03:52:03.987Z,49418.00
2022-08-17T03:54:49.146Z,49479.81
2022-08-17T03:57:16.642Z,49443.94
2022-08-17T03:59:43.342Z,49435.97
2022-08-17T04:02:17.420Z,49406.06
2022-08-17T04:04:44.754Z,49439.94
2022-08-17T04:07:11.564Z,49408.06
2022-08-17T04:09:38.290Z,49408.06
2022-08-17T04:12:05.455Z,49427.97
2022-08-17T04:14:51.743Z,49424.00
2022-08-17T04:17:25.745Z,49447.91
2022-08-17T04:19:53.486Z,49418.00
2022-08-17T04:22:30.009Z,49424.00
2022-08-17T04:24:58.811Z,49455.88
2022-08-17T04:27:25.689Z,49455.88
2022-08-17T04:29:54.803Z,49457.88
2022-08-17T04:33:00.787Z,49392.09
2022-08-17T04:35:10.051Z,49416.03
2022-08-17T04:37:36.712Z,49427.97
2022-08-17T04:40:22.917Z,49424.00
2022-08-17T04:43:26.667Z,49433.97
2022-08-17T04:45:57.218Z,49422.00
2022-08-17T04:48:27.918Z,49439.94
2022-08-17T04:51:03.845Z,49461.88
2022-08-17T04:53:30.566Z,49431.97
2022-08-17T04:55:59.010Z,49404.06
2022-08-17T04:58:25.833Z,49461.88
2022-08-17T05:00:52.746Z,49439.94
2022-08-17T05:03:19.488Z,49427.97
2022-08-17T05:05:49.657Z,49451.91
2022-08-17T05:08:19.197Z,49420.00
2022-08-17T05:10:46.926Z,49435.97
2022-08-17T05:13:18.125Z,49439.94
2022-08-17T05:15:48.095Z,49483.81
2022-08-17T05:18:16.783Z,49420.00
2022-08-17T05:20:44.823Z,49426.00
2022-08-17T05:23:16.363Z,49441.94
2022-08-17T05:25:47.661Z,49433.97
2022-08-17T05:28:16.261Z,49445.94
2022-08-17T05:30:44.668Z,49424.00
2022-08-17T05:33:17.146Z,49408.06
2022-08-17T05:35:48.146Z,49431.97
2022-08-17T05:38:17.321Z,49447.91
2022-08-17T05:40:44.782Z,49429.97
2022-08-17T05:43:17.233Z,49414.03
2022-08-17T05:45:56.579Z,49471.84
2022-08-17T05:48:36.768Z,49461.88
2022-08-17T05:51:13.202Z,49441.94
2022-08-17T05:54:07.917Z,49424.00
2022-08-17T05:56:43.611Z,49451.91
2022-08-17T05:59:23.943Z,49427.97
2022-08-17T06:01:58.560Z,49392.09
2022-08-17T06:04:41.156Z,49431.97
2022-08-17T06:07:47.064Z,49441.94
2022-08-17T06:10:46.605Z,49396.09
2022-08-17T06:13:27.548Z,49447.91
2022-08-17T06:15:56.976Z,49447.91
2022-08-17T06:18:26.936Z,49404.06
2022-08-17T06:20:58.327Z,49394.09
2022-08-17T06:23:33.998Z,49431.97
2022-08-17T06:26:08.874Z,49414.03
2022-08-17T06:28:51.726Z,49479.81
2022-08-17T06:31:27.477Z,49398.09
2022-08-17T06:33:55.131Z,49445.94
2022-08-17T06:36:42.224Z,49402.06
2022-08-17T06:39:47.325Z,49416.03
2022-08-17T06:42:55.125Z,49384.13
2022-08-17T06:45:31.992Z,49451.91
2022-08-17T06:48:09.991Z,49416.03
2022-08-17T06:50:53.473Z,49453.91
2022-08-17T06:53:45.528Z,49420.00
2022-08-17T06:56:20.818Z,49427.97
2022-08-17T06:58:48.327Z,49431.97
2022-08-17T07:01:24.912Z,49445.94
2022-08-17T07:04:12.152Z,49416.03
2022-08-17T07:06:42.377Z,49392.09
2022-08-17T07:09:17.400Z,49414.03
2022-08-17T07:11:52.814Z,49422.00
2022-08-17T07:14:43.830Z,49426.00
2022-08-17T07:17:13.905Z,49463.88
2022-08-17T07:19:45.566Z,49443.94
2022-08-17T07:22:30.621Z,49443.94
2022-08-17T07:25:18.503Z,49451.91
2022-08-17T07:27:55.922Z,49435.97
2022-08-17T07:30:22.597Z,49429.97
2022-08-17T07:33:02.557Z,49426.00
2022-08-17T07:35:37.731Z,49427.97
2022-08-17T07:38:24.732Z,49412.03
2022-08-17T07:40:59.225Z,49447.91
2022-08-17T07:43:29.432Z,49447.91
2022-08-17T07:46:23.826Z,49426.00
2022-08-17T07:48:55.759Z,49404.06
2022-08-17T07:51:38.049Z,49439.94
2022-08-17T07:54:22.879Z,49435.97
2022-08-17T07:56:56.869Z,49459.88
2022-08-17T07:59:24.959Z,49437.94
2022-08-17T08:01:58.075Z,49427.97
2022-08-17T08:05:00.205Z,49400.06
2022-08-17T08:07:21.031Z,49408.06
2022-08-17T08:10:09.600Z,49384.13
2022-08-17T08:12:49.017Z,49431.97
2022-08-17T08:15:33.219Z,49441.94
2022-08-17T08:18:03.048Z,49422.00
2022-08-17T08:20:53.355Z,49424.00
2022-08-17T08:23:41.172Z,49445.94
2022-08-17T08:26:38.430Z,49420.00
2022-08-17T08:29:11.323Z,49427.97
2022-08-17T08:31:47.065Z,49416.03
2022-08-17T08:34:53.257Z,49427.97
2022-08-17T08:37:22.606Z,49471.84
2022-08-17T08:40:13.114Z,49447.91
2022-08-17T08:42:46.690Z,49422.00
2022-08-17T08:45:24.010Z,49435.97
2022-08-17T08:47:53.676Z,49410.03
2022-08-17T08:50:47.453Z,49400.06
2022-08-17T08:53:21.341Z,49431.97
2022-08-17T08:55:55.065Z,49437.94
2022-08-17T08:58:44.805Z,49424.00
2022-08-17T09:01:39.093Z,49435.97
2022-08-17T09:04:25.278Z,49449.91
2022-08-17T09:07:23.564Z,49457.88
2022-08-17T09:10:01.597Z,49465.84
2022-08-17T09:12:50.923Z,49429.97
2022-08-17T09:15:28.399Z,49455.88
2022-08-17T09:18:59.792Z,49445.94
2022-08-17T09:21:48.000Z,49427.97
2022-08-17T09:24:32.112Z,49439.94
2022-08-17T09:27:04.697Z,49447.91
2022-08-17T09:29:35.290Z,49420.00
2022-08-17T09:32:12.153Z,49435.97
2022-08-17T09:34:48.443Z,49451.91
2022-08-17T09:37:45.923Z,49467.84
2022-08-17T09:40:15.369Z,49431.97
2022-08-17T09:43:16.906Z,49431.97
2022-08-17T09:45:51.946Z,49443.94
2022-08-17T09:48:25.089Z,49431.97
2022-08-17T09:51:06.419Z,49455.88
2022-08-17T09:53:36.962Z,49463.88
2022-08-17T09:56:25.273Z,49441.94
2022-08-17T09:58:59.862Z,49463.88
2022-08-17T10:01:37.726Z,49459.88
2022-08-17T10:04:20.113Z,49489.78
2022-08-17T10:07:13.841Z,49445.94
2022-08-17T10:10:21.228Z,49471.84
2022-08-17T10:13:14.197Z,49463.88
2022-08-17T10:16:18.660Z,49491.78
2022-08-17T10:18:54.136Z,49465.84
2022-08-17T10:21:42.257Z,49463.88
2022-08-17T10:24:35.696Z,49457.88
2022-08-17T10:27:11.990Z,49455.88
2022-08-17T10:29:51.833Z,49493.75
2022-08-17T10:32:44.397Z,49467.84
2022-08-17T10:35:14.704Z,49487.78
2022-08-17T10:38:24.448Z,49416.03
2022-08-17T10:41:00.578Z,49435.97
2022-08-17T10:43:38.866Z,49471.84
2022-08-17T10:46:31.310Z,49471.84
2022-08-17T10:49:19.180Z,49487.78
2022-08-17T10:51:48.695Z,49475.81
2022-08-17T10:54:24.113Z,49437.94
2022-08-17T10:56:53.540Z,49467.84
2022-08-17T10:59:48.692Z,49427.97
2022-08-17T11:02:50.170Z,49455.88
2022-08-17T11:05:23.674Z,49455.88
2022-08-17T11:08:08.201Z,49471.84
2022-08-17T11:10:45.542Z,49505.72
2022-08-17T11:13:44.879Z,49473.84
2022-08-17T11:16:50.237Z,49433.97
2022-08-17T11:19:58.318Z,49487.78
2022-08-17T11:22:37.368Z,49485.78
2022-08-17T11:25:20.163Z,49479.81
2022-08-17T11:27:53.667Z,49471.84
2022-08-17T11:30:53.830Z,49457.88
2022-08-17T11:33:29.633Z,49481.81
2022-08-17T11:36:25.327Z,49479.81
2022-08-17T11:39:13.380Z,49445.94
2022-08-17T11:42:07.333Z,49459.88
2022-08-17T11:44:55.410Z,49473.84
2022-08-17T11:48:23.817Z,49459.88
2022-08-17T11:51:30.596Z,49451.91
2022-08-17T11:54:31.724Z,49422.00
2022-08-17T11:56:54.919Z,49467.84
2022-08-17T11:59:33.844Z,49475.81
2022-08-17T12:02:02.794Z,49485.78
2022-08-17T12:04:32.779Z,49491.78
2022-08-17T12:07:17.999Z,49469.84
2022-08-17T12:09:49.187Z,49447.91
2022-08-17T12:12:22.560Z,49459.88
2022-08-17T12:15:11.539Z,49416.03
2022-08-17T12:17:42.334Z,49491.78
2022-08-17T12:20:22.100Z,49471.84
2022-08-17T12:23:04.936Z,49495.75
2022-08-17T12:26:05.021Z,49499.75
2022-08-17T12:28:35.973Z,49513.69
2022-08-17T12:31:11.580Z,49481.81
2022-08-17T12:33:43.848Z,49463.88
2022-08-17T12:36:15.190Z,49467.84
2022-08-17T12:38:53.583Z,49513.69
2022-08-17T12:41:36.870Z,49491.78
2022-08-17T12:44:05.951Z,49477.81
2022-08-17T12:46:44.763Z,49461.88
2022-08-17T12:49:20.094Z,49465.84
2022-08-17T12:51:47.746Z,49491.78
2022-08-17T12:54:25.807Z,49445.94
2022-08-17T12:56:52.816Z,49435.97
2022-08-17T12:59:30.379Z,49467.84
2022-08-17T13:01:57.618Z,49451.91
2022-08-17T13:04:26.455Z,49435.97
2022-08-17T13:06:59.847Z,49459.88
2022-08-17T13:09:35.576Z,49483.81
2022-08-17T13:12:07.766Z,49471.84
2022-08-17T13:14:35.292Z,49467.84
2022-08-17T13:17:08.546Z,49461.88
2022-08-17T13:19:48.466Z,49455.88
2022-08-17T13:22:15.188Z,49499.75
2022-08-17T13:24:54.960Z,49467.84
2022-08-17T13:27:24.480Z,49471.84
2022-08-17T13:29:55.842Z,49475.81
2022-08-17T13:32:45.744Z,49483.81
2022-08-17T13:35:32.845Z,49459.88
2022-08-17T13:38:11.254Z,49471.84
2022-08-17T13:40:50.783Z,49483.81
2022-08-17T13:43:41.013Z,49435.97
2022-08-17T13:46:25.227Z,49479.81
2022-08-17T13:49:22.334Z,49475.81
2022-08-17T13:51:50.205Z,49418.00
2022-08-17T13:54:36.851Z,49463.88
2022-08-17T13:57:05.616Z,49445.94
2022-08-17T13:59:55.325Z,49463.88
2022-08-17T14:02:27.580Z,49479.81
2022-08-17T14:04:56.499Z,49459.88
2022-08-17T14:07:26.543Z,49449.91
2022-08-17T14:09:56.007Z,49451.91
2022-08-17T14:12:26.916Z,49471.84
2022-08-17T14:14:58.932Z,49457.88
2022-08-17T14:17:29.027Z,49499.75
2022-08-17T14:19:55.746Z,49495.75
2022-08-17T14:22:34.365Z,49449.91
2022-08-17T14:25:02.047Z,49459.88
2022-08-17T14:27:31.823Z,49477.81
2022-08-17T14:29:58.684Z,49471.84
2022-08-17T14:32:28.768Z,49495.75
2022-08-17T14:34:57.954Z,49465.84
2022-08-17T14:37:27.909Z,49475.81
2022-08-17T14:40:00.930Z,49441.94
2022-08-17T14:42:32.446Z,49491.78
2022-08-17T14:45:00.478Z,49481.81
2022-08-17T14:47:27.109Z,49431.97
2022-08-17T14:49:53.818Z,49445.94
2022-08-17T14:52:21.989Z,49426.00
2022-08-17T14:54:51.460Z,49461.88
2022-08-17T14:57:33.687Z,49433.97
2022-08-17T15:00:02.363Z,49447.91
2022-08-17T15:02:30.695Z,49426.00
2022-08-17T15:05:04.666Z,49418.00
2022-08-17T15:07:31.750Z,49459.88
2022-08-17T15:10:02.305Z,49404.06
2022-08-17T15:12:33.577Z,49384.13
2022-08-17T15:15:04.477Z,49398.09
2022-08-17T15:17:43.871Z,49338.28
2022-08-17T15:20:27.600Z,49348.25
2022-08-17T15:22:58.917Z,49388.13
2022-08-17T15:25:27.842Z,49420.00
2022-08-17T15:27:55.945Z,49433.97
2022-08-17T15:30:23.588Z,49439.94
2022-08-17T15:32:55.169Z,49310.38
2022-08-17T15:35:28.286Z,49348.25
2022-08-17T15:38:06.235Z,49328.31
2022-08-17T15:40:39.220Z,49324.31
2022-08-17T15:43:11.675Z,49316.34
2022-08-17T15:45:39.998Z,49298.41
2022-08-17T15:48:07.027Z,49274.50
2022-08-17T15:50:33.754Z,49296.41
2022-08-17T15:53:02.387Z,49314.34
2022-08-17T15:55:31.084Z,49332.31
2022-08-17T15:57:57.860Z,49304.41
2022-08-17T16:00:28.110Z,49350.25
2022-08-17T16:03:42.582Z,49348.25
2022-08-17T16:05:43.323Z,49344.25
2022-08-17T16:08:11.594Z,49406.06
2022-08-17T16:10:38.547Z,49392.09
2022-08-17T16:13:05.197Z,49388.13
2022-08-17T16:15:43.924Z,49388.13
2022-08-17T16:18:11.556Z,49392.09
2022-08-17T16:20:38.319Z,49416.03
2022-08-17T16:23:05.226Z,49408.06
2022-08-17T16:25:50.376Z,49435.97
2022-08-17T16:28:19.991Z,49398.09
2022-08-17T16:30:46.702Z,49388.13
2022-08-17T16:33:13.591Z,49360.22
2022-08-17T16:35:41.940Z,49304.41
2022-08-17T16:38:09.532Z,49296.41
2022-08-17T16:40:36.556Z,49276.50
2022-08-17T16:43:04.340Z,49328.31
2022-08-17T16:45:36.781Z,49354.22
2022-08-17T16:48:04.343Z,49314.34
2022-08-17T16:50:32.063Z,49304.41
2022-08-17T16:53:10.707Z,49384.13
2022-08-17T16:55:38.247Z,49306.38
2022-08-17T16:58:05.620Z,49302.41
2022-08-17T17:00:33.521Z,49340.28
2022-08-17T17:03:20.538Z,49324.31
2022-08-17T17:06:32.782Z,49386.13
2022-08-17T17:09:04.785Z,49388.13
2022-08-17T17:11:42.578Z,49410.03
2022-08-17T17:14:23.911Z,49431.97
2022-08-17T17:17:04.333Z,49424.00
2022-08-17T17:19:45.708Z,49408.06
2022-08-17T17:22:38.130Z,49427.97
2022-08-17T17:25:23.263Z,49427.97
2022-08-17T17:27:57.277Z,49427.97
2022-08-17T17:30:33.067Z,49386.13
2022-08-17T17:33:13.159Z,49431.97
2022-08-17T17:36:01.752Z,49380.13
2022-08-17T17:38:47.587Z,49477.81
2022-08-17T17:41:26.307Z,49469.84
2022-08-17T17:44:05.049Z,49459.88
2022-08-17T17:46:38.334Z,49424.00
2022-08-17T17:49:06.099Z,49455.88
2022-08-17T17:52:09.076Z,49457.88
2022-08-17T17:54:51.002Z,49426.00
2022-08-17T17:57:44.194Z,49451.91
2022-08-17T18:00:16.984Z,49459.88
2022-08-17T18:03:12.804Z,49439.94
2022-08-17T18:05:47.344Z,49427.97
2022-08-17T18:08:57.232Z,49449.91
2022-08-17T18:11:40.880Z,49431.97
2022-08-17T18:14:42.182Z,49449.91
2022-08-17T18:17:08.964Z,49463.88
2022-08-17T18:19:39.853Z,49447.91
2022-08-17T18:22:14.883Z,49449.91
2022-08-17T18:24:44.784Z,49435.97
2022-08-17T18:27:49.665Z,49435.97
2022-08-17T18:30:19.969Z,49459.88
2022-08-17T18:32:47.108Z,49465.84
2022-08-17T18:35:14.255Z,49477.81
2022-08-17T18:37:46.151Z,49455.88
2022-08-17T18:40:23.355Z,49479.81
2022-08-17T18:43:02.848Z,49459.88
2022-08-17T18:45:45.877Z,49477.81
2022-08-17T18:48:24.574Z,49459.88
2022-08-17T18:50:53.601Z,49455.88
2022-08-17T18:53:35.393Z,49463.88
2022-08-17T18:56:17.796Z,49479.81
2022-08-17T18:58:59.068Z,49447.91
2022-08-17T19:01:41.722Z,49463.88
2022-08-17T19:04:35.164Z,49471.84
2022-08-17T19:07:16.854Z,49471.84
2022-08-17T19:09:49.209Z,49479.81
2022-08-17T19:12:47.818Z,49429.97
2022-08-17T19:15:26.363Z,49515.69
2022-08-17T19:18:15.834Z,49447.91
2022-08-17T19:21:09.952Z,49497.75
2022-08-17T19:23:54.080Z,49471.84
2022-08-17T19:26:53.636Z,49491.78
2022-08-17T19:30:06.997Z,49461.88
2022-08-17T19:32:35.884Z,49471.84
2022-08-17T19:35:06.036Z,49507.72
2022-08-17T19:37:38.979Z,49499.75
2022-08-17T19:40:51.093Z,49477.81
2022-08-17T19:43:23.502Z,49461.88
2022-08-17T19:46:12.083Z,49479.81
2022-08-17T19:48:54.202Z,49479.81
2022-08-17T19:51:23.948Z,49461.88
2022-08-17T19:54:15.125Z,49471.84
2022-08-17T19:57:01.725Z,49481.81
2022-08-17T19:59:53.767Z,49507.72
2022-08-17T20:02:35.645Z,49497.75
2022-08-17T20:05:07.228Z,49463.88
2022-08-17T20:08:12.722Z,49467.84
2022-08-17T20:10:54.759Z,49467.84
2022-08-17T20:13:35.327Z,49489.78
2022-08-17T20:16:04.016Z,49471.84
2022-08-17T20:18:54.316Z,49491.78
2022-08-17T20:21:37.981Z,49433.97
2022-08-17T20:24:13.615Z,49469.84
2022-08-17T20:26:55.208Z,49499.75
2022-08-17T20:29:51.069Z,49505.72
2022-08-17T20:32:24.179Z,49497.75
2022-08-17T20:35:07.736Z,49465.84
2022-08-17T20:37:36.191Z,49499.75
2022-08-17T20:40:20.411Z,49507.72
2022-08-17T20:42:47.367Z,49489.78
2022-08-17T20:45:26.342Z,49483.81
2022-08-17T20:48:22.175Z,49467.84
2022-08-17T20:50:52.595Z,49515.69
2022-08-17T20:53:52.151Z,49513.69
2022-08-17T20:56:43.609Z,49515.69
2022-08-17T20:59:25.398Z,49491.78
2022-08-17T21:02:17.571Z,49485.78
2022-08-17T21:04:52.748Z,49527.66
2022-08-17T21:07:42.765Z,49501.75
2022-08-17T21:10:22.332Z,49477.81
2022-08-17T21:13:04.285Z,49499.75
2022-08-17T21:15:39.845Z,49507.72
2022-08-17T21:18:30.781Z,49515.69
2022-08-17T21:21:03.214Z,49499.75
2022-08-17T21:24:03.102Z,49499.75
2022-08-17T21:26:30.796Z,49505.72
2022-08-17T21:29:30.831Z,49495.75
2022-08-17T21:31:59.302Z,49505.72
2022-08-17T21:34:42.498Z,49499.75
2022-08-17T21:37:22.256Z,49495.75
2022-08-17T21:40:18.491Z,49517.69
2022-08-17T21:43:11.087Z,49511.72
2022-08-17T21:45:41.661Z,49513.69
2022-08-17T21:48:21.837Z,49541.59
2022-08-17T21:51:02.149Z,49495.75
2022-08-17T21:53:36.671Z,49525.66
2022-08-17T21:56:04.752Z,49495.75
2022-08-17T21:58:35.261Z,49519.69
2022-08-17T22:01:24.782Z,49507.72
2022-08-17T22:04:25.080Z,49499.75
2022-08-17T22:06:57.234Z,49495.75
2022-08-17T22:09:41.338Z,49539.63
2022-08-17T22:12:20.407Z,49519.69
2022-08-17T22:15:05.966Z,49537.63
2022-08-17T22:17:44.834Z,49515.69
2022-08-17T22:20:16.859Z,49535.63
2022-08-17T22:23:05.269Z,49543.59
2022-08-17T22:25:41.570Z,49559.56
2022-08-17T22:28:10.965Z,49539.63
2022-08-17T22:30:41.297Z,49539.63
2022-08-17T22:33:32.854Z,49543.59
2022-08-17T22:36:28.897Z,49479.81
2022-08-17T22:39:22.315Z,49507.72
2022-08-17T22:42:00.814Z,49505.72
2022-08-17T22:44:31.998Z,49557.56
2022-08-17T22:47:17.011Z,49555.56
2022-08-17T22:49:53.842Z,49491.78
2022-08-17T22:53:03.029Z,49539.63
2022-08-17T22:55:49.747Z,49499.75
2022-08-17T22:58:40.190Z,49543.59
2022-08-17T23:01:32.406Z,49555.56
2022-08-17T23:04:05.860Z,49531.63
2022-08-17T23:06:36.463Z,49533.63
2022-08-17T23:09:05.782Z,49567.53
2022-08-17T23:11:49.132Z,49551.56
2022-08-17T23:14:19.814Z,49535.63
2022-08-17T23:16:49.010Z,49529.66
2022-08-17T23:19:19.320Z,49545.59
2022-08-17T23:21:46.740Z,49527.66
2022-08-17T23:24:22.333Z,49503.72
2022-08-17T23:26:49.073Z,49551.56
2022-08-17T23:29:15.991Z,49531.63
2022-08-17T23:31:42.914Z,49559.56
2022-08-17T23:34:12.857Z,49507.72
2022-08-17T23:36:39.562Z,49495.75
2022-08-17T23:39:07.490Z,49523.66
2022-08-17T23:41:37.270Z,49523.66
2022-08-17T23:44:05.665Z,49531.63
2022-08-17T23:46:32.866Z,49511.72
2022-08-17T23:49:00.406Z,49531.63
2022-08-17T23:51:31.402Z,49565.53
2022-08-17T23:54:08.100Z,49519.69
2022-08-17T23:56:40.128Z,49543.59
2022-08-17T23:59:06.750Z,49559.56
